Time;durP1;ratioP1;P1;durP2;ratioP2;P2;SDS_P1;SDS_P2;PMS_P1;PMS_P2;Temp;Humidity;BMP_temperature;BMP_pressure;BME280_temperature;BME280_humidity;BME280_pressure;Samples;Min_cycle;Max_cycle;Signal;HPM_P1;HPM_P2
2022/12/31 00:01:06;;;;;;;2.03;0.93;;;;;;;11.73;100.00;97869.88;5034704;28;20226;-70
2022/12/31 00:03:34;;;;;;;0.63;0.63;;;;;;;11.66;100.00;97872.63;5034543;28;20208;-70
2022/12/31 00:06:00;;;;;;;0.70;0.70;;;;;;;11.70;100.00;97859.69;5034737;28;20214;-70
2022/12/31 00:08:27;;;;;;;0.60;0.60;;;;;;;11.77;100.00;97866.53;5034790;28;20211;-69
2022/12/31 00:10:53;;;;;;;0.87;0.67;;;;;;;11.77;100.00;97869.19;5034859;28;20207;-69
2022/12/31 00:13:20;;;;;;;0.60;0.60;;;;;;;11.64;100.00;97864.06;5034983;28;20218;-70
2022/12/31 00:15:46;;;;;;;0.87;0.63;;;;;;;11.70;100.00;97876.47;5034662;28;20245;-70
2022/12/31 00:18:13;;;;;;;1.40;0.77;;;;;;;11.66;100.00;97877.97;5034589;28;20215;-69
2022/12/31 00:20:41;;;;;;;1.13;0.60;;;;;;;11.74;100.00;97882.13;5034559;28;20207;-70
2022/12/31 00:23:10;;;;;;;0.60;0.57;;;;;;;11.87;100.00;97882.75;5034039;28;20215;-69
2022/12/31 00:25:37;;;;;;;0.60;0.60;;;;;;;11.80;100.00;97883.91;5033350;28;20214;-70
2022/12/31 00:28:04;;;;;;;0.60;0.60;;;;;;;11.75;100.00;97884.56;5034119;28;20221;-70
2022/12/31 00:30:31;;;;;;;0.70;0.60;;;;;;;11.73;100.00;97899.16;5034304;28;20216;-70
2022/12/31 00:32:57;;;;;;;0.60;0.60;;;;;;;11.83;100.00;97897.56;5034275;28;20224;-70
2022/12/31 00:35:23;;;;;;;0.97;0.70;;;;;;;11.84;100.00;97903.72;5033813;28;20208;-69
2022/12/31 00:37:52;;;;;;;1.27;0.70;;;;;;;11.86;100.00;97902.44;5033823;28;20219;-70
2022/12/31 00:40:18;;;;;;;1.77;0.70;;;;;;;11.86;100.00;97898.94;5033999;28;20208;-70
2022/12/31 00:42:45;;;;;;;0.60;0.60;;;;;;;11.89;100.00;97898.50;5033814;28;20228;-69
2022/12/31 00:45:11;;;;;;;0.60;0.60;;;;;;;11.85;100.00;97897.31;5033884;28;20210;-70
2022/12/31 00:47:38;;;;;;;0.60;0.60;;;;;;;11.92;100.00;97904.16;5033838;28;20215;-69
2022/12/31 00:50:04;;;;;;;0.50;0.50;;;;;;;11.94;100.00;97907.41;5033715;28;20267;-70
2022/12/31 00:52:31;;;;;;;0.70;0.57;;;;;;;11.99;100.00;97914.72;5033754;28;20236;-69
2022/12/31 00:54:57;;;;;;;1.30;0.70;;;;;;;12.04;100.00;97910.31;5033878;28;20206;-70
2022/12/31 00:57:24;;;;;;;0.63;0.63;;;;;;;11.91;100.00;97915.88;5033800;28;20227;-70
2022/12/31 00:59:50;;;;;;;0.60;0.60;;;;;;;11.93;100.00;97921.75;5033676;28;20251;-70
2022/12/31 01:02:16;;;;;;;0.80;0.60;;;;;;;12.05;100.00;97921.78;5033580;28;20711;-70
2022/12/31 01:04:43;;;;;;;0.67;0.60;;;;;;;12.14;100.00;97933.72;5033913;28;20613;-70
2022/12/31 01:07:09;;;;;;;1.13;0.70;;;;;;;12.19;100.00;97928.50;5033856;28;20304;-70
2022/12/31 01:09:36;;;;;;;0.53;0.50;;;;;;;12.39;100.00;97923.63;5033835;28;20281;-70
2022/12/31 01:12:02;;;;;;;1.33;0.60;;;;;;;12.56;100.00;97920.00;5033662;28;20228;-70
2022/12/31 01:14:31;;;;;;;1.87;0.60;;;;;;;12.54;100.00;97943.44;5033479;28;20211;-70
2022/12/31 01:16:57;;;;;;;2.27;0.80;;;;;;;12.82;100.00;97934.69;5033563;28;20338;-70
2022/12/31 01:19:27;;;;;;;0.70;0.70;;;;;;;12.73;100.00;97939.56;5033568;28;20212;-70
2022/12/31 01:21:54;;;;;;;0.43;0.43;;;;;;;12.57;100.00;97953.63;5033071;28;20724;-70
2022/12/31 01:24:21;;;;;;;0.77;0.60;;;;;;;12.74;100.00;97951.03;5033302;28;20571;-70
2022/12/31 01:26:49;;;;;;;0.57;0.50;;;;;;;12.65;100.00;97957.78;5033954;28;20211;-70
2022/12/31 01:29:16;;;;;;;1.60;0.60;;;;;;;12.74;100.00;97981.19;5033260;28;20751;-70
2022/12/31 01:31:42;;;;;;;0.90;0.40;;;;;;;13.06;100.00;97979.78;5033258;28;20229;-70
2022/12/31 01:34:09;;;;;;;1.73;0.67;;;;;;;12.95;100.00;97980.59;5033281;28;20291;-70
2022/12/31 01:36:37;;;;;;;1.93;0.70;;;;;;;13.02;100.00;97978.63;5033536;28;20228;-70
2022/12/31 01:39:06;;;;;;;1.00;0.70;;;;;;;12.99;100.00;97989.78;5039633;28;20219;-69
2022/12/31 01:41:38;;;;;;;0.50;0.50;;;;;;;12.84;100.00;97989.41;5039888;28;20236;-70
2022/12/31 01:44:13;;;;;;;1.40;0.83;;;;;;;12.92;100.00;97981.06;5040050;28;20200;-70
2022/12/31 01:47:02;;;;;;;0.70;0.70;;;;;;;12.87;100.00;97980.13;5040021;28;20231;-70
2022/12/31 01:49:48;;;;;;;0.60;0.50;;;;;;;12.90;100.00;97971.66;5040021;28;20192;-70
2022/12/31 01:52:24;;;;;;;0.50;0.47;;;;;;;12.88;100.00;97982.56;5040151;28;20232;-69
2022/12/31 01:55:00;;;;;;;1.10;0.60;;;;;;;12.72;100.00;97987.81;5038789;28;20294;-70
2022/12/31 01:57:27;;;;;;;0.80;0.73;;;;;;;12.75;100.00;97988.16;5039502;28;20671;-70
2022/12/31 01:59:56;;;;;;;0.67;0.67;;;;;;;13.12;100.00;97991.38;5039762;28;20203;-69
2022/12/31 02:02:22;;;;;;;1.00;0.60;;;;;;;13.07;100.00;97997.41;5039362;28;20236;-70
2022/12/31 02:04:53;;;;;;;0.50;0.50;;;;;;;13.05;100.00;97994.19;5039762;28;20220;-70
2022/12/31 02:07:19;;;;;;;1.67;0.63;;;;;;;12.95;100.00;97983.28;5038701;28;20192;-70
2022/12/31 02:09:46;;;;;;;0.67;0.60;;;;;;;13.15;100.00;97994.38;5039474;28;20574;-69
2022/12/31 02:12:12;;;;;;;1.00;0.77;;;;;;;12.77;100.00;98002.09;5039534;28;20243;-69
2022/12/31 02:14:46;;;;;;;0.50;0.50;;;;;;;13.00;100.00;98010.09;5039694;28;20215;-70
2022/12/31 02:18:02;;;;;;;0.53;0.50;;;;;;;12.99;100.00;98008.47;5039705;28;20221;-70
2022/12/31 02:21:06;;;;;;;1.47;0.60;;;;;;;12.78;100.00;98011.72;4998029;28;20190;-70
2022/12/31 02:23:46;;;;;;;1.20;0.40;;;;;;;12.66;100.00;98012.78;5008617;28;20205;-70
2022/12/31 02:26:25;;;;;;;0.97;0.60;;;;;;;12.59;100.00;98004.06;5039467;28;20520;-70
2022/12/31 02:28:54;;;;;;;0.67;0.60;;;;;;;12.52;100.00;98016.72;5039581;28;20571;-70
2022/12/31 02:31:43;;;;;;;1.43;0.70;;;;;;;12.46;100.00;98010.44;5039546;28;20232;-70
2022/12/31 02:34:17;;;;;;;0.73;0.57;;;;;;;12.47;100.00;98017.41;5038512;28;20196;-70
2022/12/31 02:36:47;;;;;;;0.60;0.60;;;;;;;12.50;100.00;98010.78;5038395;28;20552;-70
2022/12/31 02:39:14;;;;;;;0.97;0.60;;;;;;;12.41;100.00;98018.34;5039896;28;20202;-70
2022/12/31 02:41:50;;;;;;;1.33;0.60;;;;;;;12.45;100.00;98019.50;5039209;28;20743;-70
2022/12/31 02:44:25;;;;;;;0.87;0.60;;;;;;;12.41;100.00;98017.50;5039540;28;20190;-70
2022/12/31 02:47:20;;;;;;;2.07;0.60;;;;;;;12.43;100.00;98016.22;5038008;28;20285;-70
2022/12/31 02:49:46;;;;;;;0.63;0.63;;;;;;;12.31;100.00;98010.09;5036278;28;20212;-70
2022/12/31 02:52:55;;;;;;;0.83;0.60;;;;;;;12.26;100.00;98001.97;5035999;28;20716;-70
2022/12/31 02:55:37;;;;;;;0.73;0.60;;;;;;;12.32;100.00;98005.56;5035077;28;20661;-70
2022/12/31 02:58:06;;;;;;;0.60;0.60;;;;;;;12.41;100.00;98014.84;5036163;28;20216;-70
2022/12/31 03:03:39;;;;;;;0.90;0.83;;;;;;;12.36;100.00;98001.41;4975098;28;20685;-70
2022/12/31 03:06:08;;;;;;;0.67;0.60;;;;;;;12.20;100.00;98004.75;4974942;28;20214;-70
2022/12/31 03:09:11;;;;;;;1.43;0.70;;;;;;;12.27;100.00;98000.94;5002555;28;20212;-70
2022/12/31 03:14:04;;;;;;;0.77;0.60;;;;;;;12.74;100.00;98007.88;5035818;28;20532;-70
2022/12/31 03:16:30;;;;;;;2.10;0.70;;;;;;;12.64;100.00;97991.66;5036148;28;20584;-70
2022/12/31 03:27:08;;;;;;;0.60;0.60;;;;;;;12.97;100.00;97999.88;5035521;28;20180;-70
2022/12/31 03:29:35;;;;;;;1.20;0.50;;;;;;;13.22;100.00;97997.75;5035348;28;20209;-70
2022/12/31 03:32:01;;;;;;;0.60;0.60;;;;;;;13.18;100.00;98003.78;5035265;28;20716;-70
2022/12/31 03:34:27;;;;;;;0.60;0.60;;;;;;;13.35;100.00;98010.00;5035569;28;20215;-70
2022/12/31 03:36:54;;;;;;;0.67;0.60;;;;;;;13.59;100.00;98017.69;5035464;28;20225;-70
2022/12/31 03:39:20;;;;;;;0.90;0.70;;;;;;;13.67;100.00;98017.31;5035440;28;20217;-69
2022/12/31 03:41:46;;;;;;;0.83;0.60;;;;;;;13.63;100.00;98026.03;5035375;28;20229;-70
2022/12/31 03:44:13;;;;;;;0.50;0.50;;;;;;;13.93;100.00;98016.69;5035404;28;20206;-70
2022/12/31 03:46:39;;;;;;;0.40;0.40;;;;;;;13.69;100.00;98012.53;5035349;28;20202;-70
2022/12/31 03:49:05;;;;;;;1.03;0.60;;;;;;;13.79;100.00;98010.03;5035281;28;20213;-70
2022/12/31 03:51:32;;;;;;;0.67;0.60;;;;;;;14.03;100.00;98024.91;5035194;28;20240;-70
2022/12/31 03:53:58;;;;;;;1.20;0.67;;;;;;;13.87;100.00;98020.34;5035463;28;20206;-69
2022/12/31 03:56:24;;;;;;;1.90;0.60;;;;;;;14.15;100.00;98022.16;5035103;28;20221;-69
2022/12/31 03:58:51;;;;;;;0.73;0.60;;;;;;;14.02;100.00;98023.25;5035117;28;20217;-70
2022/12/31 04:01:18;;;;;;;0.60;0.60;;;;;;;14.03;100.00;98024.09;5035108;28;20226;-70
2022/12/31 04:03:44;;;;;;;0.50;0.50;;;;;;;13.85;100.00;98016.28;5034889;28;20213;-70
2022/12/31 04:06:11;;;;;;;0.67;0.60;;;;;;;13.96;100.00;98029.59;5034803;28;20212;-70
2022/12/31 04:08:37;;;;;;;0.93;0.63;;;;;;;14.23;100.00;98033.28;5035058;28;20202;-70
2022/12/31 04:11:03;;;;;;;1.33;0.63;;;;;;;14.09;100.00;98018.59;5034379;28;20321;-70
2022/12/31 04:13:30;;;;;;;0.53;0.53;;;;;;;14.14;100.00;98021.34;5034500;28;20216;-70
2022/12/31 04:15:56;;;;;;;2.37;0.50;;;;;;;14.38;100.00;98027.38;5034772;28;20210;-69
2022/12/31 04:18:22;;;;;;;1.00;0.67;;;;;;;14.21;100.00;98042.59;5034633;28;20236;-69
2022/12/31 04:20:49;;;;;;;1.23;0.70;;;;;;;14.19;100.00;98032.13;5034592;28;20210;-70
2022/12/31 04:23:15;;;;;;;0.63;0.60;;;;;;;14.32;100.00;98031.84;5034692;28;20194;-70
2022/12/31 04:25:41;;;;;;;0.53;0.53;;;;;;;14.19;100.00;98031.28;5034268;28;20210;-70
2022/12/31 04:28:08;;;;;;;0.47;0.40;;;;;;;14.40;100.00;98026.09;5034184;28;20216;-70
2022/12/31 04:30:34;;;;;;;0.83;0.40;;;;;;;14.34;100.00;98031.59;5034394;28;20229;-71
2022/12/31 04:33:00;;;;;;;0.90;0.60;;;;;;;14.37;100.00;98029.25;5034449;28;20206;-70
2022/12/31 04:35:27;;;;;;;0.87;0.50;;;;;;;14.24;100.00;98018.84;5034385;28;20206;-70
2022/12/31 04:37:53;;;;;;;1.23;0.70;;;;;;;14.12;100.00;98034.16;5033756;28;20585;-70
2022/12/31 04:40:20;;;;;;;0.63;0.50;;;;;;;14.27;100.00;98030.94;5033694;28;20696;-70
2022/12/31 04:42:46;;;;;;;0.60;0.60;;;;;;;14.07;100.00;98039.38;5033626;28;20291;-70
2022/12/31 04:45:12;;;;;;;1.27;0.53;;;;;;;14.25;100.00;98044.53;5033458;28;20220;-70
2022/12/31 04:47:39;;;;;;;0.60;0.57;;;;;;;14.02;100.00;98052.66;5033731;28;20215;-70
2022/12/31 04:50:06;;;;;;;0.60;0.60;;;;;;;14.28;100.00;98048.59;5033810;28;20213;-70
2022/12/31 04:52:32;;;;;;;0.47;0.47;;;;;;;14.17;100.00;98050.28;5033981;28;20233;-70
2022/12/31 04:54:58;;;;;;;1.67;0.60;;;;;;;14.08;100.00;98057.06;5033965;28;20205;-70
2022/12/31 04:57:25;;;;;;;0.63;0.63;;;;;;;14.26;100.00;98067.59;5034189;28;20221;-70
2022/12/31 04:59:51;;;;;;;0.60;0.50;;;;;;;14.23;100.00;98065.38;5033657;28;20205;-70
2022/12/31 05:02:18;;;;;;;0.60;0.60;;;;;;;14.23;100.00;98076.06;5033854;28;20226;-70
2022/12/31 05:04:44;;;;;;;0.87;0.50;;;;;;;14.02;100.00;98063.34;5033940;28;20202;-70
2022/12/31 05:07:10;;;;;;;1.30;0.50;;;;;;;14.16;100.00;98063.88;5033594;28;20213;-70
2022/12/31 05:09:38;;;;;;;0.60;0.53;;;;;;;14.02;100.00;98060.69;5034255;28;20217;-70
2022/12/31 05:12:04;;;;;;;1.13;0.60;;;;;;;14.01;100.00;98067.09;5033135;28;20226;-70
2022/12/31 05:14:31;;;;;;;0.40;0.40;;;;;;;14.17;100.00;98069.00;5033672;28;20212;-70
2022/12/31 05:16:58;;;;;;;0.70;0.50;;;;;;;14.08;100.00;98078.47;5033623;28;20225;-70
2022/12/31 05:19:24;;;;;;;0.50;0.50;;;;;;;13.92;100.00;98076.53;5033633;28;20249;-70
2022/12/31 05:24:31;;;;;;;0.50;0.50;;;;;;;13.71;100.00;98082.53;5032983;28;20696;-70
2022/12/31 05:26:57;;;;;;;0.50;0.50;;;;;;;13.51;100.00;98076.81;5033580;28;20201;-69
2022/12/31 05:29:24;;;;;;;0.60;0.60;;;;;;;13.55;100.00;98071.81;5032849;28;20212;-70
2022/12/31 05:31:51;;;;;;;0.53;0.50;;;;;;;13.67;100.00;98077.94;5033522;28;20226;-70
2022/12/31 05:34:17;;;;;;;0.67;0.50;;;;;;;13.85;100.00;98080.41;5033419;28;20206;-69
2022/12/31 05:36:43;;;;;;;0.73;0.47;;;;;;;13.65;100.00;98080.03;5032959;28;20228;-70
2022/12/31 05:39:10;;;;;;;0.40;0.40;;;;;;;13.51;100.00;98087.50;5033089;28;20212;-70
2022/12/31 05:41:36;;;;;;;0.80;0.63;;;;;;;13.91;100.00;98072.25;5032955;28;20225;-70
2022/12/31 05:44:02;;;;;;;0.50;0.50;;;;;;;13.89;100.00;98086.91;5033035;28;20216;-70
2022/12/31 05:46:29;;;;;;;1.03;0.57;;;;;;;13.76;100.00;98090.69;5033250;28;20208;-70
2022/12/31 05:48:55;;;;;;;0.57;0.57;;;;;;;13.86;100.00;98082.03;5033298;28;20202;-69
2022/12/31 05:51:22;;;;;;;0.53;0.53;;;;;;;13.79;100.00;98087.53;5033188;28;20222;-70
2022/12/31 05:53:48;;;;;;;0.50;0.50;;;;;;;13.59;100.00;98108.50;5033292;28;20201;-70
2022/12/31 05:56:15;;;;;;;1.53;0.60;;;;;;;13.67;100.00;98105.47;5033270;28;20216;-70
2022/12/31 05:58:41;;;;;;;0.50;0.50;;;;;;;13.50;100.00;98106.44;5033254;28;20253;-70
2022/12/31 06:01:08;;;;;;;0.60;0.50;;;;;;;13.52;100.00;98112.38;5033182;28;20222;-70
2022/12/31 06:03:34;;;;;;;2.07;0.70;;;;;;;13.51;100.00;98116.06;5033215;28;20206;-70
2022/12/31 06:06:01;;;;;;;1.33;0.60;;;;;;;13.48;100.00;98122.69;5032849;28;20217;-70
2022/12/31 06:08:27;;;;;;;0.63;0.50;;;;;;;13.33;100.00;98125.03;5032945;28;20206;-70
2022/12/31 06:10:53;;;;;;;1.37;0.80;;;;;;;13.29;100.00;98131.09;5032881;28;20206;-70
2022/12/31 06:13:20;;;;;;;2.30;0.70;;;;;;;13.33;100.00;98134.91;5032905;28;20216;-70
2022/12/31 06:15:46;;;;;;;1.90;0.70;;;;;;;13.24;100.00;98145.13;5033181;28;20206;-70
2022/12/31 06:18:12;;;;;;;1.13;0.60;;;;;;;13.40;100.00;98139.09;5032340;28;20243;-70
2022/12/31 06:20:39;;;;;;;0.63;0.60;;;;;;;13.36;100.00;98139.78;5032672;28;20205;-70
2022/12/31 06:23:05;;;;;;;0.77;0.77;;;;;;;13.61;100.00;98137.66;5032900;28;20218;-70
2022/12/31 06:25:34;;;;;;;0.53;0.43;;;;;;;13.55;100.00;98115.38;5035408;28;20673;-70
2022/12/31 06:28:00;;;;;;;0.60;0.60;;;;;;;13.63;100.00;98124.88;5036556;28;20573;-70
2022/12/31 06:30:26;;;;;;;0.70;0.70;;;;;;;13.73;100.00;98133.91;5036747;28;20215;-70
2022/12/31 06:32:55;;;;;;;1.40;0.60;;;;;;;13.80;100.00;98123.88;5036698;28;20226;-70
2022/12/31 06:35:21;;;;;;;0.60;0.60;;;;;;;13.76;100.00;98136.13;5036746;28;20204;-70
2022/12/31 06:37:47;;;;;;;1.23;0.50;;;;;;;13.82;100.00;98124.47;5036451;28;20233;-69
2022/12/31 06:40:14;;;;;;;0.90;0.50;;;;;;;13.90;100.00;98131.28;5036191;28;20216;-70
2022/12/31 06:42:41;;;;;;;0.43;0.43;;;;;;;13.92;100.00;98139.88;5036351;28;20225;-70
2022/12/31 06:45:08;;;;;;;4.77;0.80;;;;;;;14.01;100.00;98133.91;5036428;28;20212;-70
2022/12/31 06:47:34;;;;;;;0.80;0.60;;;;;;;13.91;100.00;98140.91;5036383;28;20209;-70
2022/12/31 06:50:01;;;;;;;0.40;0.40;;;;;;;13.87;100.00;98127.22;5037138;28;20202;-70
2022/12/31 06:52:27;;;;;;;0.50;0.50;;;;;;;13.91;100.00;98123.03;5036275;28;20600;-70
2022/12/31 06:54:54;;;;;;;0.60;0.60;;;;;;;13.94;100.00;98111.88;5036275;28;20201;-70
2022/12/31 06:57:22;;;;;;;0.60;0.60;;;;;;;14.00;100.00;98118.13;5036013;28;20240;-69
2022/12/31 06:59:49;;;;;;;2.20;0.60;;;;;;;13.82;100.00;98111.09;5036352;28;20213;-70
2022/12/31 07:02:53;;;;;;;0.60;0.60;;;;;;;13.83;100.00;98112.72;5035883;28;20229;-69
2022/12/31 07:05:32;;;;;;;0.50;0.50;;;;;;;14.00;100.00;98115.44;5035976;28;20228;-69
2022/12/31 07:08:05;;;;;;;0.50;0.50;;;;;;;13.90;100.00;98128.63;5034810;28;20197;-70
2022/12/31 07:11:02;;;;;;;0.40;0.40;;;;;;;13.86;100.00;98128.28;5035962;28;20213;-69
2022/12/31 07:13:41;;;;;;;0.50;0.40;;;;;;;13.94;100.00;98122.56;5029475;28;20202;-70
2022/12/31 07:16:27;;;;;;;1.97;0.50;;;;;;;13.84;100.00;98126.91;5034809;28;20193;-69
2022/12/31 07:19:03;;;;;;;0.50;0.50;;;;;;;14.03;100.00;98142.53;5035856;28;20223;-70
2022/12/31 07:21:39;;;;;;;0.50;0.50;;;;;;;14.16;100.00;98136.88;5035068;28;20244;-70
2022/12/31 07:24:10;;;;;;;0.50;0.50;;;;;;;14.15;100.00;98145.94;5035562;28;20197;-70
2022/12/31 07:26:47;;;;;;;0.53;0.50;;;;;;;14.17;100.00;98149.22;5035281;28;20722;-69
2022/12/31 07:29:19;;;;;;;0.60;0.60;;;;;;;14.05;100.00;98148.44;5035539;28;20194;-70
2022/12/31 07:32:02;;;;;;;0.73;0.70;;;;;;;14.08;100.00;98145.28;5035366;28;20225;-70
2022/12/31 07:34:45;;;;;;;0.60;0.60;;;;;;;14.34;100.00;98147.38;5035427;28;20190;-70
2022/12/31 07:37:25;;;;;;;1.03;0.50;;;;;;;14.34;100.00;98150.06;5035929;28;20200;-69
2022/12/31 07:40:10;;;;;;;1.00;0.50;;;;;;;14.46;100.00;98145.47;5034467;28;20198;-70
2022/12/31 07:42:42;;;;;;;1.13;0.57;;;;;;;14.39;100.00;98155.50;5035455;28;20230;-69
2022/12/31 07:45:32;;;;;;;0.50;0.50;;;;;;;14.59;99.30;98163.06;5034934;28;20715;-70
2022/12/31 07:47:58;;;;;;;0.83;0.50;;;;;;;14.45;100.00;98149.22;5035272;28;20210;-69
2022/12/31 07:50:25;;;;;;;0.57;0.57;;;;;;;14.51;100.00;98148.25;5035193;28;20206;-69
2022/12/31 07:52:52;;;;;;;0.50;0.50;;;;;;;14.63;98.59;98154.34;5034800;28;20730;-70
2022/12/31 07:55:18;;;;;;;1.20;0.60;;;;;;;14.59;98.47;98149.69;5035160;28;20212;-69
2022/12/31 07:58:14;;;;;;;0.70;0.50;;;;;;;14.58;98.24;98153.44;5035050;28;20316;-70
2022/12/31 08:00:41;;;;;;;1.27;0.90;;;;;;;14.58;97.82;98159.63;5033630;28;20212;-69
2022/12/31 08:03:16;;;;;;;0.70;0.53;;;;;;;14.86;95.11;98167.56;5034719;28;20217;-70
2022/12/31 08:06:08;;;;;;;1.50;0.70;;;;;;;14.83;95.21;98168.03;5035026;28;20197;-70
2022/12/31 08:09:01;;;;;;;0.80;0.70;;;;;;;14.70;96.26;98170.25;5034642;28;20212;-69
2022/12/31 08:11:40;;;;;;;0.77;0.77;;;;;;;14.77;94.89;98177.06;5034752;28;20233;-69
2022/12/31 08:14:11;;;;;;;0.70;0.60;;;;;;;14.96;93.83;98181.13;5034859;28;20196;-69
2022/12/31 08:16:38;;;;;;;1.43;0.60;;;;;;;15.11;92.12;98181.34;5034735;28;20190;-69
2022/12/31 08:19:05;;;;;;;0.50;0.50;;;;;;;15.05;92.55;98187.69;5034627;28;20229;-69
2022/12/31 08:21:48;;;;;;;0.50;0.50;;;;;;;15.26;91.14;98175.41;5034275;28;20607;-69
2022/12/31 08:24:14;;;;;;;0.73;0.50;;;;;;;15.34;89.84;98183.06;5034611;28;20190;-69
2022/12/31 08:26:54;;;;;;;0.60;0.60;;;;;;;15.30;89.91;98185.41;5034224;28;20213;-70
2022/12/31 08:29:39;;;;;;;0.60;0.60;;;;;;;15.25;90.10;98179.94;5034500;28;20186;-69
2022/12/31 08:32:21;;;;;;;3.17;0.70;;;;;;;15.23;90.28;98175.91;5034367;28;20230;-70
2022/12/31 08:34:47;;;;;;;1.60;0.53;;;;;;;15.08;91.96;98176.50;5034069;28;20237;-70
2022/12/31 08:37:36;;;;;;;0.60;0.60;;;;;;;15.13;90.10;98181.94;5034141;28;20216;-70
2022/12/31 08:40:19;;;;;;;0.93;0.60;;;;;;;15.22;90.11;98177.78;5034587;28;20244;-69
2022/12/31 08:43:15;;;;;;;2.07;0.60;;;;;;;15.32;88.52;98190.50;5033966;28;20236;-70
2022/12/31 08:45:50;;;;;;;1.80;0.60;;;;;;;15.31;88.45;98191.56;5033884;28;20543;-70
2022/12/31 08:48:36;;;;;;;0.60;0.60;;;;;;;15.17;90.12;98199.13;5033387;28;20190;-70
2022/12/31 08:51:03;;;;;;;0.50;0.50;;;;;;;15.13;90.12;98203.34;5032554;28;20716;-69
2022/12/31 08:53:30;;;;;;;0.57;0.57;;;;;;;15.09;91.72;98209.41;5033985;28;20206;-70
2022/12/31 08:56:13;;;;;;;1.70;1.60;;;;;;;15.28;89.10;98210.81;5034126;28;20210;-69
2022/12/31 08:58:39;;;;;;;2.37;1.03;;;;;;;15.49;86.92;98228.84;5033982;28;20661;-69
2022/12/31 09:01:08;;;;;;;0.93;0.93;;;;;;;15.39;88.17;98234.03;5033707;28;20231;-69
2022/12/31 09:03:43;;;;;;;0.93;0.87;;;;;;;15.54;86.35;98232.41;5034437;28;20214;-69
2022/12/31 09:06:26;;;;;;;0.83;0.83;;;;;;;15.46;87.50;98240.03;5033664;28;20194;-70
2022/12/31 09:09:11;;;;;;;0.60;0.60;;;;;;;15.43;87.12;98229.81;5033481;28;20186;-69
2022/12/31 09:12:17;;;;;;;0.60;0.60;;;;;;;15.34;88.06;98220.56;5033377;28;20697;-70
2022/12/31 09:14:59;;;;;;;0.60;0.60;;;;;;;15.43;87.58;98233.28;5032368;28;20194;-70
2022/12/31 09:17:33;;;;;;;0.80;0.80;;;;;;;15.43;87.50;98240.53;5033040;28;20645;-70
2022/12/31 09:20:00;;;;;;;0.63;0.63;;;;;;;15.55;86.58;98246.59;5032203;28;20202;-70
2022/12/31 09:22:26;;;;;;;1.30;0.87;;;;;;;15.53;87.35;98243.38;5033046;28;20229;-70
2022/12/31 09:24:53;;;;;;;0.63;0.60;;;;;;;15.69;85.38;98224.56;5033356;28;20216;-70
2022/12/31 09:27:37;;;;;;;0.97;0.60;;;;;;;15.85;85.05;98239.00;5033198;28;20206;-70
2022/12/31 09:30:07;;;;;;;0.50;0.50;;;;;;;15.95;84.22;98226.53;5033415;28;20205;-69
2022/12/31 09:32:36;;;;;;;0.50;0.50;;;;;;;16.13;82.96;98236.13;5033189;28;20230;-70
2022/12/31 09:35:40;;;;;;;0.60;0.60;;;;;;;16.27;81.52;98245.44;5033083;28;20216;-69
2022/12/31 09:38:22;;;;;;;0.90;0.90;;;;;;;16.24;82.10;98245.94;5033104;28;20225;-70
2022/12/31 09:41:24;;;;;;;0.87;0.73;;;;;;;16.34;80.57;98230.78;5033496;28;20198;-69
2022/12/31 09:43:56;;;;;;;0.50;0.50;;;;;;;16.35;79.85;98255.72;5033106;28;20193;-70
2022/12/31 09:46:36;;;;;;;0.70;0.60;;;;;;;16.34;79.32;98249.56;5033366;28;20206;-70
2022/12/31 09:49:30;;;;;;;0.77;0.70;;;;;;;16.44;78.53;98251.56;5033070;28;20206;-70
2022/12/31 09:52:15;;;;;;;0.67;0.60;;;;;;;16.60;78.15;98253.38;5032956;28;20232;-70
2022/12/31 09:54:53;;;;;;;1.03;0.70;;;;;;;16.61;77.95;98247.72;5033239;28;20210;-70
2022/12/31 09:57:25;;;;;;;0.60;0.60;;;;;;;16.60;77.31;98246.13;5032982;28;20220;-70
2022/12/31 10:00:05;;;;;;;1.10;0.80;;;;;;;16.61;77.66;98246.94;5036466;28;20210;-69
2022/12/31 10:02:53;;;;;;;1.40;0.60;;;;;;;16.70;77.10;98242.75;5036959;28;20225;-70
2022/12/31 10:05:50;;;;;;;0.77;0.60;;;;;;;16.77;76.80;98236.09;5037526;28;20194;-70
2022/12/31 10:09:04;;;;;;;0.50;0.50;;;;;;;16.88;76.02;98248.53;5036617;28;20190;-70
2022/12/31 10:12:08;;;;;;;0.50;0.50;;;;;;;16.99;75.02;98244.09;5027522;28;20225;-69
2022/12/31 10:14:59;;;;;;;0.60;0.60;;;;;;;16.94;75.01;98233.31;5036808;28;20205;-70
2022/12/31 10:17:53;;;;;;;0.50;0.50;;;;;;;17.06;73.98;98226.69;5036763;28;20248;-69
2022/12/31 10:20:54;;;;;;;0.57;0.57;;;;;;;16.97;74.34;98227.44;5035398;28;20213;-69
2022/12/31 10:23:41;;;;;;;1.33;0.60;;;;;;;16.99;73.87;98220.72;5036747;28;20186;-69
2022/12/31 10:26:35;;;;;;;0.60;0.60;;;;;;;16.89;76.65;98227.88;5036658;28;20554;-69
2022/12/31 10:29:28;;;;;;;1.00;0.60;;;;;;;16.95;75.06;98221.47;5035248;28;20552;-69
2022/12/31 10:32:16;;;;;;;2.30;0.70;;;;;;;17.09;73.37;98231.56;5035965;28;20230;-69
2022/12/31 10:35:12;;;;;;;1.67;0.70;;;;;;;17.10;73.69;98241.22;5037070;28;20206;-69
2022/12/31 10:38:01;;;;;;;0.73;0.50;;;;;;;17.18;72.55;98240.78;5037040;28;20240;-70
2022/12/31 10:40:51;;;;;;;1.47;0.60;;;;;;;17.18;73.18;98239.94;5035686;28;20606;-70
2022/12/31 10:43:52;;;;;;;0.50;0.50;;;;;;;17.22;73.15;98233.81;5035280;28;20285;-69
2022/12/31 10:46:49;;;;;;;0.60;0.60;;;;;;;17.25;71.40;98224.44;5035713;28;20205;-69
2022/12/31 10:49:46;;;;;;;0.57;0.57;;;;;;;17.30;71.92;98217.22;5035811;28;20648;-69
2022/12/31 10:52:27;;;;;;;0.90;0.90;;;;;;;17.40;70.49;98217.31;5036033;28;20230;-69
2022/12/31 10:55:16;;;;;;;0.63;0.63;;;;;;;17.39;71.89;98222.94;5035796;28;20284;-70
2022/12/31 10:58:19;;;;;;;0.57;0.53;;;;;;;17.28;72.02;98210.50;5035825;28;20190;-72
2022/12/31 11:01:07;;;;;;;1.00;0.60;;;;;;;17.57;69.22;98215.31;5035350;28;20216;-70
2022/12/31 11:03:36;;;;;;;0.60;0.50;;;;;;;17.50;69.83;98214.69;5035877;28;20197;-70
2022/12/31 11:06:11;;;;;;;0.60;0.60;;;;;;;17.48;70.65;98208.78;5035932;28;20209;-70
2022/12/31 11:09:07;;;;;;;0.50;0.50;;;;;;;17.53;69.88;98208.81;5035658;28;20604;-70
2022/12/31 11:12:00;;;;;;;0.70;0.50;;;;;;;17.59;69.85;98212.31;5033674;28;20232;-69
2022/12/31 11:14:44;;;;;;;1.63;0.50;;;;;;;17.65;68.79;98205.94;5019830;28;20216;-70
2022/12/31 11:17:43;;;;;;;0.50;0.50;;;;;;;17.64;68.07;98205.13;5035478;28;20198;-70
2022/12/31 11:20:37;;;;;;;0.60;0.60;;;;;;;17.59;69.05;98191.63;5014366;28;20724;-70
2022/12/31 11:23:28;;;;;;;0.60;0.60;;;;;;;17.59;68.91;98204.25;5035134;28;20236;-70
2022/12/31 11:26:18;;;;;;;0.93;0.50;;;;;;;17.71;67.60;98200.31;5036000;28;20190;-70
2022/12/31 11:29:08;;;;;;;0.97;0.60;;;;;;;17.68;68.22;98210.78;5034925;28;20642;-70
2022/12/31 11:31:45;;;;;;;2.33;0.60;;;;;;;17.82;67.87;98201.19;5035392;28;20226;-70
2022/12/31 11:34:32;;;;;;;0.60;0.60;;;;;;;17.83;65.68;98192.84;5035787;28;20217;-70
2022/12/31 11:37:20;;;;;;;1.40;0.53;;;;;;;17.72;67.74;98188.50;5034030;28;20193;-70
2022/12/31 11:39:47;;;;;;;0.50;0.50;;;;;;;17.83;66.07;98184.78;5035306;28;20230;-70
2022/12/31 11:42:32;;;;;;;0.90;0.53;;;;;;;17.74;66.74;98197.09;5035179;28;20222;-70
2022/12/31 11:45:24;;;;;;;1.80;0.80;;;;;;;17.84;66.68;98191.78;5035356;28;20194;-70
2022/12/31 11:48:04;;;;;;;0.50;0.50;;;;;;;17.93;64.76;98192.91;5019058;28;20213;-70
2022/12/31 11:50:35;;;;;;;0.60;0.50;;;;;;;17.99;64.82;98189.16;5035442;28;20264;-69
2022/12/31 11:53:31;;;;;;;0.57;0.57;;;;;;;17.91;66.08;98181.59;5034980;28;20201;-71
2022/12/31 11:56:06;;;;;;;0.50;0.50;;;;;;;17.92;65.00;98177.03;5034967;28;20191;-70
2022/12/31 11:58:33;;;;;;;0.50;0.50;;;;;;;17.92;65.23;98168.97;5034563;28;20236;-70
2022/12/31 12:01:13;;;;;;;1.53;0.60;;;;;;;17.98;64.37;98166.03;5034659;28;20226;-70
2022/12/31 12:03:42;;;;;;;0.53;0.53;;;;;;;17.93;64.86;98162.50;5034558;28;20194;-70
2022/12/31 12:06:12;;;;;;;0.63;0.63;;;;;;;18.09;63.76;98161.50;5034550;28;20221;-70
2022/12/31 12:08:40;;;;;;;0.53;0.50;;;;;;;18.19;63.11;98162.31;5034576;28;20638;-70
2022/12/31 12:11:18;;;;;;;0.50;0.50;;;;;;;18.11;64.51;98157.47;5034554;28;20228;-70
2022/12/31 12:13:45;;;;;;;0.50;0.50;;;;;;;18.19;63.22;98148.84;5033070;28;20194;-70
2022/12/31 12:16:11;;;;;;;1.70;0.77;;;;;;;18.11;64.45;98157.47;5034255;28;20213;-70
2022/12/31 12:18:49;;;;;;;0.60;0.60;;;;;;;18.11;63.63;98165.53;5033825;28;20221;-70